sensor_id;sensor_type;location;lat;lon;timestamp;pressure;altitude;pressure_sealevel;temperature;humidity
36190;BME280;22232;50.914;13.858;2023-04-04T00:00:39;98892.66;;;0.38;100.00
36190;BME280;22232;50.914;13.858;2023-04-04T00:03:07;98892.38;;;0.41;100.00
36190;BME280;22232;50.914;13.858;2023-04-04T00:05:35;98892.38;;;0.41;100.00
36190;BME280;22232;50.914;13.858;2023-04-04T00:08:02;98890.47;;;0.43;100.00
36190;BME280;22232;50.914;13.858;2023-04-04T00:10:30;98888.25;;;0.38;100.00
36190;BME280;22232;50.914;13.858;2023-04-04T00:12:58;98887.25;;;0.39;100.00
36190;BME280;22232;50.914;13.858;2023-04-04T00:15:25;98886.44;;;0.39;100.00
36190;BME280;22232;50.914;13.858;2023-04-04T00:17:53;98882.44;;;0.44;100.00
36190;BME280;22232;50.914;13.858;2023-04-04T00:20:21;98884.09;;;0.26;100.00
36190;BME280;22232;50.914;13.858;2023-04-04T00:22:48;98879.41;;;0.30;100.00
36190;BME280;22232;50.914;13.858;2023-04-04T00:25:16;98879.41;;;0.30;100.00
36190;BME280;22232;50.914;13.858;2023-04-04T00:27:43;98876.50;;;0.23;100.00
36190;BME280;22232;50.914;13.858;2023-04-04T00:30:11;98877.22;;;0.25;100.00
36190;BME280;22232;50.914;13.858;2023-04-04T00:32:39;98872.94;;;0.34;100.00
36190;BME280;22232;50.914;13.858;2023-04-04T00:35:07;98867.25;;;0.38;100.00
36190;BME280;22232;50.914;13.858;2023-04-04T00:37:34;98866.13;;;0.41;100.00
36190;BME280;22232;50.914;13.858;2023-04-04T00:40:02;98863.25;;;0.44;100.00
36190;BME280;22232;50.914;13.858;2023-04-04T00:42:32;98859.91;;;0.42;100.00
36190;BME280;22232;50.914;13.858;2023-04-04T00:45:00;98866.69;;;0.35;100.00
36190;BME280;22232;50.914;13.858;2023-04-04T00:47:29;98858.28;;;0.31;100.00
36190;BME280;22232;50.914;13.858;2023-04-04T00:49:57;98855.66;;;0.31;100.00
36190;BME280;22232;50.914;13.858;2023-04-04T00:52:25;98858.13;;;0.33;100.00
36190;BME280;22232;50.914;13.858;2023-04-04T00:54:56;98848.47;;;0.33;100.00
36190;BME280;22232;50.914;13.858;2023-04-04T00:57:24;98854.56;;;0.34;100.00
36190;BME280;22232;50.914;13.858;2023-04-04T00:59:53;98848.34;;;0.25;100.00
36190;BME280;22232;50.914;13.858;2023-04-04T01:02:24;98847.09;;;0.19;100.00
36190;BME280;22232;50.914;13.858;2023-04-04T01:04:54;98853.19;;;0.20;100.00
36190;BME280;22232;50.914;13.858;2023-04-04T01:07:22;98844.75;;;0.16;100.00
36190;BME280;22232;50.914;13.858;2023-04-04T01:09:49;98849.72;;;0.19;100.00
36190;BME280;22232;50.914;13.858;2023-04-04T01:12:18;98852.75;;;0.15;100.00
36190;BME280;22232;50.914;13.858;2023-04-04T01:14:46;98847.78;;;0.12;100.00
36190;BME280;22232;50.914;13.858;2023-04-04T01:17:14;98846.00;;;0.12;100.00
36190;BME280;22232;50.914;13.858;2023-04-04T01:19:47;98849.59;;;0.11;100.00
36190;BME280;22232;50.914;13.858;2023-04-04T01:22:18;98838.69;;;0.06;100.00
36190;BME280;22232;50.914;13.858;2023-04-04T01:24:48;98850.28;;;0.04;100.00
36190;BME280;22232;50.914;13.858;2023-04-04T01:27:16;98847.22;;;0.08;100.00
36190;BME280;22232;50.914;13.858;2023-04-04T01:29:52;98847.94;;;0.10;100.00
36190;BME280;22232;50.914;13.858;2023-04-04T01:32:42;98849.03;;;0.08;100.00
36190;BME280;22232;50.914;13.858;2023-04-04T01:37:54;98838.69;;;0.06;100.00
36190;BME280;22232;50.914;13.858;2023-04-04T01:40:27;98840.47;;;0.06;100.00
36190;BME280;22232;50.914;13.858;2023-04-04T01:43:02;98840.06;;;0.01;100.00
36190;BME280;22232;50.914;13.858;2023-04-04T01:45:32;98829.16;;;0.05;100.00
36190;BME280;22232;50.914;13.858;2023-04-04T01:48:04;98835.09;;;0.07;100.00
36190;BME280;22232;50.914;13.858;2023-04-04T01:50:32;98834.66;;;0.02;100.00
36190;BME280;22232;50.914;13.858;2023-04-04T01:52:59;98832.47;;;-0.03;100.00
36190;BME280;22232;50.914;13.858;2023-04-04T01:55:27;98833.84;;;-0.08;100.00
36190;BME280;22232;50.914;13.858;2023-04-04T01:57:56;98823.09;;;-0.05;100.00
36190;BME280;22232;50.914;13.858;2023-04-04T02:00:24;98822.81;;;-0.02;100.00
36190;BME280;22232;50.914;13.858;2023-04-04T02:02:51;98816.72;;;-0.12;100.00
36190;BME280;22232;50.914;13.858;2023-04-04T02:05:19;98818.66;;;-0.05;100.00
36190;BME280;22232;50.914;13.858;2023-04-04T02:07:47;98820.59;;;-0.16;100.00
36190;BME280;22232;50.914;13.858;2023-04-04T02:10:27;98816.06;;;-0.14;100.00
36190;BME280;22232;50.914;13.858;2023-04-04T02:12:56;98810.66;;;-0.13;100.00
36190;BME280;22232;50.914;13.858;2023-04-04T02:15:24;98811.75;;;-0.15;100.00
36190;BME280;22232;50.914;13.858;2023-04-04T02:17:53;98806.94;;;-0.20;100.00
36190;BME280;22232;50.914;13.858;2023-04-04T02:20:20;98811.09;;;-0.17;100.00
36190;BME280;22232;50.914;13.858;2023-04-04T02:22:50;98803.63;;;-0.22;100.00
36190;BME280;22232;50.914;13.858;2023-04-04T02:25:19;98805.00;;;-0.18;100.00
36190;BME280;22232;50.914;13.858;2023-04-04T02:27:47;98809.41;;;-0.38;100.00
36190;BME280;22232;50.914;13.858;2023-04-04T02:30:15;98804.03;;;-0.27;100.00
36190;BME280;22232;50.914;13.858;2023-04-04T02:32:43;98802.94;;;-0.14;100.00
36190;BME280;22232;50.914;13.858;2023-04-04T02:35:15;98804.16;;;-0.18;100.00
36190;BME280;22232;50.914;13.858;2023-04-04T02:37:44;98807.06;;;-0.21;100.00
36190;BME280;22232;50.914;13.858;2023-04-04T02:40:20;98797.56;;;-0.22;100.00
36190;BME280;22232;50.914;13.858;2023-04-04T02:42:47;98803.22;;;-0.27;100.00
36190;BME280;22232;50.914;13.858;2023-04-04T02:45:15;98795.75;;;-0.32;100.00
36190;BME280;22232;50.914;13.858;2023-04-04T02:47:52;98800.19;;;-0.32;100.00
36190;BME280;22232;50.914;13.858;2023-04-04T02:50:25;98796.44;;;-0.30;100.00
36190;BME280;22232;50.914;13.858;2023-04-04T02:52:59;98804.31;;;-0.30;100.00
36190;BME280;22232;50.914;13.858;2023-04-04T02:55:30;98801.41;;;-0.27;100.00
36190;BME280;22232;50.914;13.858;2023-04-04T02:57:58;98805.69;;;-0.26;100.00
36190;BME280;22232;50.914;13.858;2023-04-04T03:00:28;98804.88;;;-0.36;100.00
36190;BME280;22232;50.914;13.858;2023-04-04T03:02:56;98797.97;;;-0.27;100.00
36190;BME280;22232;50.914;13.858;2023-04-04T03:05:31;98800.03;;;-0.31;100.00
36190;BME280;22232;50.914;13.858;2023-04-04T03:07:59;98804.59;;;-0.33;100.00
36190;BME280;22232;50.914;13.858;2023-04-04T03:10:28;98801.97;;;-0.33;100.00
36190;BME280;22232;50.914;13.858;2023-04-04T03:12:58;98807.59;;;-0.37;100.00
36190;BME280;22232;50.914;13.858;2023-04-04T03:15:28;98810.78;;;-0.34;100.00
36190;BME280;22232;50.914;13.858;2023-04-04T03:17:57;98806.78;;;-0.38;100.00
36190;BME280;22232;50.914;13.858;2023-04-04T03:20:29;98803.72;;;-0.43;100.00
36190;BME280;22232;50.914;13.858;2023-04-04T03:22:57;98807.59;;;-0.47;100.00
36190;BME280;22232;50.914;13.858;2023-04-04T03:25:25;98802.91;;;-0.43;100.00
36190;BME280;22232;50.914;13.858;2023-04-04T03:27:54;98801.53;;;-0.48;100.00
36190;BME280;22232;50.914;13.858;2023-04-04T03:30:24;98801.38;;;-0.46;100.00
36190;BME280;22232;50.914;13.858;2023-04-04T03:32:52;98793.25;;;-0.43;100.00
36190;BME280;22232;50.914;13.858;2023-04-04T03:35:19;98796.28;;;-0.48;100.00
36190;BME280;22232;50.914;13.858;2023-04-04T03:37:47;98791.31;;;-0.51;100.00
36190;BME280;22232;50.914;13.858;2023-04-04T03:40:14;98797.28;;;-0.49;100.00
36190;BME280;22232;50.914;13.858;2023-04-04T03:42:42;98795.47;;;-0.48;100.00
36190;BME280;22232;50.914;13.858;2023-04-04T03:45:12;98789.13;;;-0.45;100.00
36190;BME280;22232;50.914;13.858;2023-04-04T03:47:41;98793.78;;;-0.49;100.00
36190;BME280;22232;50.914;13.858;2023-04-04T03:50:09;98788.16;;;-0.54;100.00
36190;BME280;22232;50.914;13.858;2023-04-04T03:52:42;98789.38;;;-0.58;100.00
36190;BME280;22232;50.914;13.858;2023-04-04T03:55:10;98786.63;;;-0.57;100.00
36190;BME280;22232;50.914;13.858;2023-04-04T03:57:37;98787.19;;;-0.53;100.00
36190;BME280;22232;50.914;13.858;2023-04-04T04:00:09;98785.94;;;-0.49;100.00
36190;BME280;22232;50.914;13.858;2023-04-04T04:02:40;98781.13;;;-0.44;100.00
36190;BME280;22232;50.914;13.858;2023-04-04T04:05:09;98781.56;;;-0.49;100.00
36190;BME280;22232;50.914;13.858;2023-04-04T04:07:36;98778.34;;;-0.52;100.00
36190;BME280;22232;50.914;13.858;2023-04-04T04:10:04;98785.00;;;-0.48;100.00
36190;BME280;22232;50.914;13.858;2023-04-04T04:12:32;98784.00;;;-0.47;100.00
36190;BME280;22232;50.914;13.858;2023-04-04T04:15:00;98787.19;;;-0.53;100.00
36190;BME280;22232;50.914;13.858;2023-04-04T04:17:31;98788.00;;;-0.62;100.00
36190;BME280;22232;50.914;13.858;2023-04-04T04:19:59;98792.41;;;-0.63;100.00
36190;BME280;22232;50.914;13.858;2023-04-04T04:22:35;98799.72;;;-0.57;100.00
36190;BME280;22232;50.914;13.858;2023-04-04T04:25:04;98791.72;;;-0.55;100.00
36190;BME280;22232;50.914;13.858;2023-04-04T04:27:32;98791.44;;;-0.52;100.00
36190;BME280;22232;50.914;13.858;2023-04-04T04:30:00;98792.16;;;-0.50;100.00
36190;BME280;22232;50.914;13.858;2023-04-04T04:32:32;98790.63;;;-0.53;100.00
36190;BME280;22232;50.914;13.858;2023-04-04T04:34:59;98793.41;;;-0.54;100.00
36190;BME280;22232;50.914;13.858;2023-04-04T04:37:31;98792.16;;;-0.50;100.00
36190;BME280;22232;50.914;13.858;2023-04-04T04:39:59;98791.88;;;-0.57;100.00
36190;BME280;22232;50.914;13.858;2023-04-04T04:42:50;98793.94;;;-0.60;100.00
36190;BME280;22232;50.914;13.858;2023-04-04T04:45:21;98792.53;;;-0.64;100.00
36190;BME280;22232;50.914;13.858;2023-04-04T04:47:59;98794.88;;;-0.61;100.00
36190;BME280;22232;50.914;13.858;2023-04-04T04:50:27;98804.97;;;-0.66;100.00
36190;BME280;22232;50.914;13.858;2023-04-04T04:52:55;98795.59;;;-0.59;100.00
36190;BME280;22232;50.914;13.858;2023-04-04T04:55:24;98797.38;;;-0.70;100.00
36190;BME280;22232;50.914;13.858;2023-04-04T04:58:02;98800.94;;;-0.71;100.00
36190;BME280;22232;50.914;13.858;2023-04-04T05:00:32;98796.84;;;-0.63;100.00
36190;BME280;22232;50.914;13.858;2023-04-04T05:03:00;98799.56;;;-0.65;100.00
36190;BME280;22232;50.914;13.858;2023-04-04T05:05:37;98806.03;;;-0.79;100.00
36190;BME280;22232;50.914;13.858;2023-04-04T05:08:11;98802.19;;;-0.75;100.00
36190;BME280;22232;50.914;13.858;2023-04-04T05:10:49;98805.34;;;-0.81;100.00
36190;BME280;22232;50.914;13.858;2023-04-04T05:13:18;98808.66;;;-0.79;100.00
36190;BME280;22232;50.914;13.858;2023-04-04T05:15:47;98809.31;;;-0.86;100.00
36190;BME280;22232;50.914;13.858;2023-04-04T05:18:16;98815.09;;;-0.93;100.00
36190;BME280;22232;50.914;13.858;2023-04-04T05:20:50;98806.13;;;-0.90;100.00
36190;BME280;22232;50.914;13.858;2023-04-04T05:23:18;98818.66;;;-0.94;100.00
36190;BME280;22232;50.914;13.858;2023-04-04T05:25:50;98820.72;;;-0.97;100.00
36190;BME280;22232;50.914;13.858;2023-04-04T05:28:21;98822.94;;;-0.93;100.00
36190;BME280;22232;50.914;13.858;2023-04-04T05:30:52;98823.66;;;-0.81;100.00
36190;BME280;22232;50.914;13.858;2023-04-04T05:33:24;98828.53;;;-0.66;100.00
36190;BME280;22232;50.914;13.858;2023-04-04T05:36:12;98835.13;;;-0.72;100.00
36190;BME280;22232;50.914;13.858;2023-04-04T05:38:54;98826.59;;;-0.64;100.00
36190;BME280;22232;50.914;13.858;2023-04-04T05:41:25;98825.78;;;-0.55;100.00
36190;BME280;22232;50.914;13.858;2023-04-04T05:43:59;98832.28;;;-0.40;100.00
36190;BME280;22232;50.914;13.858;2023-04-04T05:46:27;98833.53;;;-0.54;100.00
36190;BME280;22232;50.914;13.858;2023-04-04T05:48:55;98832.81;;;-0.65;100.00
36190;BME280;22232;50.914;13.858;2023-04-04T05:51:24;98840.09;;;-0.79;100.00
36190;BME280;22232;50.914;13.858;2023-04-04T05:54:11;98828.75;;;-0.79;100.00
36190;BME280;22232;50.914;13.858;2023-04-04T05:56:39;98836.06;;;-0.83;100.00
36190;BME280;22232;50.914;13.858;2023-04-04T05:59:14;98835.94;;;-0.81;100.00
36190;BME280;22232;50.914;13.858;2023-04-04T06:01:52;98833.19;;;-0.70;100.00
36190;BME280;22232;50.914;13.858;2023-04-04T06:04:20;98836.81;;;-0.61;100.00
36190;BME280;22232;50.914;13.858;2023-04-04T06:06:48;98840.69;;;-0.56;100.00
36190;BME280;22232;50.914;13.858;2023-04-04T06:09:15;98842.50;;;-0.47;100.00
36190;BME280;22232;50.914;13.858;2023-04-04T06:11:43;98837.44;;;-0.19;100.00
36190;BME280;22232;50.914;13.858;2023-04-04T06:14:11;98836.75;;;-0.02;100.00
36190;BME280;22232;50.914;13.858;2023-04-04T06:16:42;98829.13;;;0.15;100.00
36190;BME280;22232;50.914;13.858;2023-04-04T06:19:09;98830.94;;;0.14;100.00
36190;BME280;22232;50.914;13.858;2023-04-04T06:21:36;98834.00;;;0.00;100.00
36190;BME280;22232;50.914;13.858;2023-04-04T06:24:04;98830.94;;;0.34;100.00
36190;BME280;22232;50.914;13.858;2023-04-04T06:26:32;98831.91;;;0.23;100.00
36190;BME280;22232;50.914;13.858;2023-04-04T06:29:01;98822.03;;;1.01;100.00
36190;BME280;22232;50.914;13.858;2023-04-04T06:31:32;98817.09;;;2.07;100.00
36190;BME280;22232;50.914;13.858;2023-04-04T06:34:06;98808.25;;;2.60;100.00
36190;BME280;22232;50.914;13.858;2023-04-04T06:36:43;98810.06;;;2.60;100.00
36190;BME280;22232;50.914;13.858;2023-04-04T06:39:12;98814.25;;;3.05;100.00
36190;BME280;22232;50.914;13.858;2023-04-04T06:41:40;98807.63;;;3.43;100.00
36190;BME280;22232;50.914;13.858;2023-04-04T06:44:07;98808.44;;;3.35;100.00
36190;BME280;22232;50.914;13.858;2023-04-04T06:46:38;98816.59;;;3.16;100.00
36190;BME280;22232;50.914;13.858;2023-04-04T06:49:06;98812.03;;;3.26;100.00
36190;BME280;22232;50.914;13.858;2023-04-04T06:51:34;98813.22;;;2.63;100.00
36190;BME280;22232;50.914;13.858;2023-04-04T06:54:01;98815.78;;;2.81;100.00
36190;BME280;22232;50.914;13.858;2023-04-04T06:56:29;98818.06;;;2.50;100.00
36190;BME280;22232;50.914;13.858;2023-04-04T06:58:56;98817.47;;;2.90;100.00
36190;BME280;22232;50.914;13.858;2023-04-04T07:01:23;98814.06;;;2.20;100.00
36190;BME280;22232;50.914;13.858;2023-04-04T07:03:54;98812.13;;;2.04;100.00
36190;BME280;22232;50.914;13.858;2023-04-04T07:06:21;98815.19;;;1.81;100.00
36190;BME280;22232;50.914;13.858;2023-04-04T07:08:52;98812.81;;;2.50;100.00
36190;BME280;22232;50.914;13.858;2023-04-04T07:11:19;98811.47;;;3.06;100.00
36190;BME280;22232;50.914;13.858;2023-04-04T07:13:46;98815.53;;;3.43;100.00
36190;BME280;22232;50.914;13.858;2023-04-04T07:16:14;98812.19;;;3.75;100.00
36190;BME280;22232;50.914;13.858;2023-04-04T07:18:41;98815.22;;;3.46;100.00
36190;BME280;22232;50.914;13.858;2023-04-04T07:21:10;98806.25;;;3.22;100.00
36190;BME280;22232;50.914;13.858;2023-04-04T07:23:37;98806.59;;;3.28;100.00
36190;BME280;22232;50.914;13.858;2023-04-04T07:26:04;98817.78;;;3.21;100.00
36190;BME280;22232;50.914;13.858;2023-04-04T07:28:32;98816.69;;;2.98;100.00
36190;BME280;22232;50.914;13.858;2023-04-04T07:31:00;98816.03;;;2.96;100.00
36190;BME280;22232;50.914;13.858;2023-04-04T07:33:30;98812.16;;;3.16;100.00
36190;BME280;22232;50.914;13.858;2023-04-04T07:35:59;98815.06;;;2.45;100.00
36190;BME280;22232;50.914;13.858;2023-04-04T07:38:27;98817.81;;;2.17;100.00
36190;BME280;22232;50.914;13.858;2023-04-04T07:40:54;98823.00;;;1.91;100.00
36190;BME280;22232;50.914;13.858;2023-04-04T07:43:22;98820.13;;;2.38;100.00
36190;BME280;22232;50.914;13.858;2023-04-04T07:45:49;98819.84;;;3.02;100.00
36190;BME280;22232;50.914;13.858;2023-04-04T07:48:16;98823.38;;;2.32;100.00
36190;BME280;22232;50.914;13.858;2023-04-04T07:50:46;98810.88;;;2.60;100.00
36190;BME280;22232;50.914;13.858;2023-04-04T07:53:13;98826.72;;;2.42;100.00
36190;BME280;22232;50.914;13.858;2023-04-04T07:55:40;98822.31;;;1.53;100.00
36190;BME280;22232;50.914;13.858;2023-04-04T07:58:07;98815.53;;;1.51;100.00
36190;BME280;22232;50.914;13.858;2023-04-04T08:00:35;98815.38;;;1.98;100.00
36190;BME280;22232;50.914;13.858;2023-04-04T08:03:02;98822.84;;;2.55;100.00
36190;BME280;22232;50.914;13.858;2023-04-04T08:05:30;98821.09;;;2.63;100.00
36190;BME280;22232;50.914;13.858;2023-04-04T08:07:57;98812.84;;;2.84;100.00
36190;BME280;22232;50.914;13.858;2023-04-04T08:10:24;98803.59;;;2.80;100.00
36190;BME280;22232;50.914;13.858;2023-04-04T08:12:52;98822.47;;;3.02;100.00
36190;BME280;22232;50.914;13.858;2023-04-04T08:15:20;98812.47;;;2.79;100.00
36190;BME280;22232;50.914;13.858;2023-04-04T08:17:47;98812.59;;;3.04;100.00
36190;BME280;22232;50.914;13.858;2023-04-04T08:20:16;98809.31;;;3.44;100.00
36190;BME280;22232;50.914;13.858;2023-04-04T08:22:43;98813.72;;;3.43;88.98
36190;BME280;22232;50.914;13.858;2023-04-04T08:25:10;98805.94;;;4.09;91.67
36190;BME280;22232;50.914;13.858;2023-04-04T08:27:39;98809.19;;;3.86;79.98
36190;BME280;22232;50.914;13.858;2023-04-04T08:30:06;98798.25;;;3.49;77.05
36190;BME280;22232;50.914;13.858;2023-04-04T08:32:35;98811.91;;;2.41;79.97
36190;BME280;22232;50.914;13.858;2023-04-04T08:35:02;98801.53;;;3.00;86.73
36190;BME280;22232;50.914;13.858;2023-04-04T08:37:30;98805.13;;;2.91;81.51
36190;BME280;22232;50.914;13.858;2023-04-04T08:39:58;98811.59;;;2.44;69.28
36190;BME280;22232;50.914;13.858;2023-04-04T08:42:25;98807.81;;;1.67;76.95
36190;BME280;22232;50.914;13.858;2023-04-04T08:44:53;98814.28;;;1.91;69.73
36190;BME280;22232;50.914;13.858;2023-04-04T08:47:23;98799.41;;;2.43;76.76
36190;BME280;22232;50.914;13.858;2023-04-04T08:49:51;98813.63;;;2.50;77.34
36190;BME280;22232;50.914;13.858;2023-04-04T08:52:19;98805.00;;;2.66;76.55
36190;BME280;22232;50.914;13.858;2023-04-04T08:54:49;98790.06;;;2.75;73.46
36190;BME280;22232;50.914;13.858;2023-04-04T08:57:17;98800.53;;;2.93;78.42
36190;BME280;22232;50.914;13.858;2023-04-04T08:59:45;98798.34;;;2.88;69.72
36190;BME280;22232;50.914;13.858;2023-04-04T09:02:23;98794.50;;;2.74;69.00
36190;BME280;22232;50.914;13.858;2023-04-04T09:04:52;98793.00;;;3.06;66.63
36190;BME280;22232;50.914;13.858;2023-04-04T09:07:32;98791.03;;;3.08;73.98
36190;BME280;22232;50.914;13.858;2023-04-04T09:10:02;98791.91;;;3.17;62.36
36190;BME280;22232;50.914;13.858;2023-04-04T09:12:30;98794.47;;;3.01;58.46
36190;BME280;22232;50.914;13.858;2023-04-04T09:14:58;98789.78;;;2.08;62.74
36190;BME280;22232;50.914;13.858;2023-04-04T09:17:26;98796.47;;;1.84;58.29
36190;BME280;22232;50.914;13.858;2023-04-04T09:19:54;98793.94;;;1.93;64.05
36190;BME280;22232;50.914;13.858;2023-04-04T09:22:21;98792.44;;;1.90;64.06
36190;BME280;22232;50.914;13.858;2023-04-04T09:24:48;98790.47;;;1.74;64.74
36190;BME280;22232;50.914;13.858;2023-04-04T09:27:17;98798.56;;;2.17;63.18
36190;BME280;22232;50.914;13.858;2023-04-04T09:29:44;98794.72;;;2.55;68.29
36190;BME280;22232;50.914;13.858;2023-04-04T09:32:13;98791.63;;;2.94;67.47
36190;BME280;22232;50.914;13.858;2023-04-04T09:34:42;98786.59;;;3.59;66.20
36190;BME280;22232;50.914;13.858;2023-04-04T09:37:12;98789.50;;;3.32;60.72
36190;BME280;22232;50.914;13.858;2023-04-04T09:39:41;98794.66;;;3.58;64.27
36190;BME280;22232;50.914;13.858;2023-04-04T09:42:09;98799.16;;;2.81;59.64
36190;BME280;22232;50.914;13.858;2023-04-04T09:44:37;98802.66;;;1.93;58.32
36190;BME280;22232;50.914;13.858;2023-04-04T09:47:21;98802.56;;;1.67;61.41
36190;BME280;22232;50.914;13.858;2023-04-04T09:50:00;98804.25;;;2.30;63.26
36190;BME280;22232;50.914;13.858;2023-04-04T09:52:30;98795.34;;;2.05;56.10
36190;BME280;22232;50.914;13.858;2023-04-04T09:54:59;98799.63;;;2.50;64.20
36190;BME280;22232;50.914;13.858;2023-04-04T09:57:27;98791.81;;;2.92;65.87
36190;BME280;22232;50.914;13.858;2023-04-04T09:59:58;98783.31;;;3.74;59.94
36190;BME280;22232;50.914;13.858;2023-04-04T10:02:29;98796.13;;;3.02;60.70
36190;BME280;22232;50.914;13.858;2023-04-04T10:04:57;98793.91;;;2.11;58.50
36190;BME280;22232;50.914;13.858;2023-04-04T10:07:32;98795.28;;;2.41;59.47
36190;BME280;22232;50.914;13.858;2023-04-04T10:10:00;98790.97;;;2.92;55.49
36190;BME280;22232;50.914;13.858;2023-04-04T10:12:29;98786.09;;;3.05;52.91
36190;BME280;22232;50.914;13.858;2023-04-04T10:14:56;98797.91;;;3.35;56.73
36190;BME280;22232;50.914;13.858;2023-04-04T10:17:45;98793.72;;;3.25;55.58
36190;BME280;22232;50.914;13.858;2023-04-04T10:20:12;98784.44;;;3.55;53.37
36190;BME280;22232;50.914;13.858;2023-04-04T10:22:39;98789.03;;;3.44;50.61
36190;BME280;22232;50.914;13.858;2023-04-04T10:25:09;98785.59;;;3.10;50.55
36190;BME280;22232;50.914;13.858;2023-04-04T10:27:36;98785.59;;;3.10;54.46
36190;BME280;22232;50.914;13.858;2023-04-04T10:30:04;98773.38;;;3.51;54.12
36190;BME280;22232;50.914;13.858;2023-04-04T10:32:39;98781.16;;;3.69;56.20
36190;BME280;22232;50.914;13.858;2023-04-04T10:35:08;98780.47;;;3.59;54.63
36190;BME280;22232;50.914;13.858;2023-04-04T10:37:42;98780.47;;;3.51;56.20
36190;BME280;22232;50.914;13.858;2023-04-04T10:40:12;98779.44;;;3.35;55.83
36190;BME280;22232;50.914;13.858;2023-04-04T10:42:42;98771.50;;;3.27;53.79
36190;BME280;22232;50.914;13.858;2023-04-04T10:45:13;98766.31;;;3.60;55.93
36190;BME280;22232;50.914;13.858;2023-04-04T10:47:47;98766.00;;;3.79;51.35
36190;BME280;22232;50.914;13.858;2023-04-04T10:50:15;98772.25;;;3.86;53.96
36190;BME280;22232;50.914;13.858;2023-04-04T10:52:43;98776.88;;;4.01;58.84
36190;BME280;22232;50.914;13.858;2023-04-04T10:55:11;98763.31;;;3.55;53.85
36190;BME280;22232;50.914;13.858;2023-04-04T10:57:45;98769.28;;;3.06;55.16
36190;BME280;22232;50.914;13.858;2023-04-04T11:00:14;98780.41;;;3.34;58.66
36190;BME280;22232;50.914;13.858;2023-04-04T11:02:56;98771.78;;;3.08;52.34
36190;BME280;22232;50.914;13.858;2023-04-04T11:05:26;98775.50;;;3.39;56.88
36190;BME280;22232;50.914;13.858;2023-04-04T11:07:57;98770.88;;;3.33;56.65
36190;BME280;22232;50.914;13.858;2023-04-04T11:10:29;98769.25;;;3.65;53.31
36190;BME280;22232;50.914;13.858;2023-04-04T11:12:57;98766.28;;;3.52;53.73
36190;BME280;22232;50.914;13.858;2023-04-04T11:15:58;98770.88;;;3.33;52.32
36190;BME280;22232;50.914;13.858;2023-04-04T11:21:03;98767.31;;;3.67;50.66
36190;BME280;22232;50.914;13.858;2023-04-04T11:28:57;98746.88;;;3.69;54.05
36190;BME280;22232;50.914;13.858;2023-04-04T11:31:26;98743.06;;;4.04;56.92
36190;BME280;22232;50.914;13.858;2023-04-04T11:42:21;98729.06;;;3.63;53.64
36190;BME280;22232;50.914;13.858;2023-04-04T11:44:33;98729.22;;;3.53;57.43
36190;BME280;22232;50.914;13.858;2023-04-04T11:49:35;98733.31;;;2.55;55.71
36190;BME280;22232;50.914;13.858;2023-04-04T11:52:06;98730.56;;;2.98;54.70
36190;BME280;22232;50.914;13.858;2023-04-04T11:54:35;98724.28;;;3.66;57.07
36190;BME280;22232;50.914;13.858;2023-04-04T11:57:06;98726.91;;;4.07;53.26
36190;BME280;22232;50.914;13.858;2023-04-04T11:59:37;98713.66;;;4.32;53.09
36190;BME280;22232;50.914;13.858;2023-04-04T12:02:06;98698.81;;;5.41;51.59
36190;BME280;22232;50.914;13.858;2023-04-04T12:04:34;98707.19;;;5.29;50.84
36190;BME280;22232;50.914;13.858;2023-04-04T12:07:04;98703.22;;;4.55;52.63
36190;BME280;22232;50.914;13.858;2023-04-04T12:09:32;98715.53;;;3.66;54.77
36190;BME280;22232;50.914;13.858;2023-04-04T12:12:00;98719.97;;;3.41;52.56
36190;BME280;22232;50.914;13.858;2023-04-04T12:14:27;98704.97;;;3.82;53.45
36190;BME280;22232;50.914;13.858;2023-04-04T12:16:55;98717.81;;;3.44;52.63
36190;BME280;22232;50.914;13.858;2023-04-04T12:19:23;98697.56;;;3.53;49.96
36190;BME280;22232;50.914;13.858;2023-04-04T12:21:51;98706.13;;;3.88;52.30
36190;BME280;22232;50.914;13.858;2023-04-04T12:24:19;98705.59;;;4.25;51.95
36190;BME280;22232;50.914;13.858;2023-04-04T12:26:47;98711.72;;;4.01;52.21
36190;BME280;22232;50.914;13.858;2023-04-04T12:29:16;98702.66;;;3.79;53.07
36190;BME280;22232;50.914;13.858;2023-04-04T12:31:44;98693.06;;;4.19;57.82
36190;BME280;22232;50.914;13.858;2023-04-04T12:34:22;98690.22;;;4.29;54.54
36190;BME280;22232;50.914;13.858;2023-04-04T12:36:56;98684.03;;;4.61;54.00
36190;BME280;22232;50.914;13.858;2023-04-04T12:39:27;98703.00;;;3.76;51.93
36190;BME280;22232;50.914;13.858;2023-04-04T12:41:58;98707.94;;;3.38;48.35
36190;BME280;22232;50.914;13.858;2023-04-04T12:44:26;98701.84;;;3.62;49.32
36190;BME280;22232;50.914;13.858;2023-04-04T12:46:56;98686.81;;;4.04;48.08
36190;BME280;22232;50.914;13.858;2023-04-04T12:49:29;98701.78;;;4.20;51.62
36190;BME280;22232;50.914;13.858;2023-04-04T12:51:57;98690.47;;;3.78;49.84
36190;BME280;22232;50.914;13.858;2023-04-04T12:54:31;98687.19;;;3.93;49.80
36190;BME280;22232;50.914;13.858;2023-04-04T12:57:00;98679.22;;;4.17;49.22
36190;BME280;22232;50.914;13.858;2023-04-04T12:59:29;98679.38;;;4.16;50.56
36190;BME280;22232;50.914;13.858;2023-04-04T13:01:56;98663.22;;;4.66;49.09
36190;BME280;22232;50.914;13.858;2023-04-04T13:04:24;98664.84;;;4.67;51.56
36190;BME280;22232;50.914;13.858;2023-04-04T13:06:51;98668.19;;;3.97;56.01
36190;BME280;22232;50.914;13.858;2023-04-04T13:09:20;98672.97;;;3.20;55.43
36190;BME280;22232;50.914;13.858;2023-04-04T13:11:55;98677.34;;;3.03;63.08
36190;BME280;22232;50.914;13.858;2023-04-04T13:14:22;98683.81;;;3.09;60.14
36190;BME280;22232;50.914;13.858;2023-04-04T13:17:11;98675.28;;;3.56;60.35
36190;BME280;22232;50.914;13.858;2023-04-04T13:19:37;98683.19;;;3.56;54.11
36190;BME280;22232;50.914;13.858;2023-04-04T13:22:06;98667.72;;;3.61;52.29
36190;BME280;22232;50.914;13.858;2023-04-04T13:24:33;98662.78;;;3.66;50.64